Time;durP1;ratioP1;P1;durP2;ratioP2;P2;SDS_P1;SDS_P2;PMS_P1;PMS_P2;Temp;Humidity;BMP_temperature;BMP_pressure;BME280_temperature;BME280_humidity;BME280_pressure;Samples;Min_cycle;Max_cycle;Signal;HPM_P1;HPM_P2
2022/11/04 00:02:03;;;;;;;12.65;7.65;;;12.80;99.90;;;;;;5042169;28;20030;-76
2022/11/04 00:04:28;;;;;;;11.93;6.65;;;12.70;99.90;;;;;;5052460;28;20025;-74
2022/11/04 00:06:56;;;;;;;11.68;7.63;;;12.70;99.90;;;;;;5027962;28;20052;-73
2022/11/04 00:09:26;;;;;;;13.43;6.93;;;12.60;99.90;;;;;;5034308;28;20594;-73
2022/11/04 00:14:36;;;;;;;7.88;4.28;;;12.70;99.90;;;;;;5036163;28;20047;-76
2022/11/04 00:17:18;;;;;;;9.35;4.95;;;12.60;99.90;;;;;;5033414;28;20136;-75
2022/11/04 00:33:46;;;;;;;12.02;6.82;;;12.70;99.90;;;;;;5031810;28;20093;-75
2022/11/04 00:36:11;;;;;;;15.57;7.13;;;12.60;99.90;;;;;;5040015;28;20552;-75
2022/11/04 00:38:37;;;;;;;11.43;6.63;;;12.60;99.90;;;;;;5048155;28;20037;-75
2022/11/04 00:41:24;;;;;;;9.73;5.03;;;12.60;99.90;;;;;;5048592;28;20394;-75
2022/11/04 00:43:48;;;;;;;8.52;4.63;;;12.60;99.90;;;;;;5038433;28;20079;-75
2022/11/04 00:46:14;;;;;;;11.95;5.88;;;12.50;99.90;;;;;;5040749;28;20030;-75
2022/11/04 00:48:39;;;;;;;12.48;6.63;;;12.60;99.90;;;;;;5045118;28;20021;-75
2022/11/04 00:51:05;;;;;;;10.02;5.95;;;12.60;99.90;;;;;;5050929;28;20032;-75
2022/11/04 00:53:31;;;;;;;10.95;5.97;;;12.60;99.90;;;;;;5033466;28;20029;-75
2022/11/04 00:55:58;;;;;;;10.98;6.15;;;12.60;99.90;;;;;;5039698;28;20021;-75
2022/11/04 00:58:24;;;;;;;9.07;5.18;;;12.60;99.90;;;;;;5043803;28;20079;-75
2022/11/04 01:00:49;;;;;;;6.55;4.03;;;12.60;99.90;;;;;;5041929;28;20026;-75
2022/11/04 01:03:15;;;;;;;5.35;3.10;;;12.40;99.90;;;;;;5037076;28;20403;-75
2022/11/04 01:05:41;;;;;;;6.88;3.83;;;12.40;99.90;;;;;;5033320;28;20064;-75
2022/11/04 01:08:06;;;;;;;8.52;3.60;;;12.50;99.90;;;;;;5043116;28;20039;-75
2022/11/04 01:10:35;;;;;;;6.10;3.33;;;12.40;99.90;;;;;;5033205;28;20100;-75
2022/11/04 01:13:01;;;;;;;5.75;3.38;;;12.50;99.90;;;;;;5030473;28;20067;-75
2022/11/04 01:15:26;;;;;;;5.45;3.10;;;12.50;99.90;;;;;;5033463;28;20093;-75
2022/11/04 01:17:52;;;;;;;7.30;3.08;;;12.50;99.90;;;;;;5018637;28;20048;-75
2022/11/04 01:20:17;;;;;;;6.95;3.08;;;12.50;99.90;;;;;;5036881;28;20034;-75
2022/11/04 01:22:43;;;;;;;6.20;2.90;;;12.50;99.90;;;;;;5042124;28;20037;-75
2022/11/04 01:25:09;;;;;;;4.03;2.13;;;12.50;99.90;;;;;;5031304;28;20022;-75
2022/11/04 01:27:35;;;;;;;6.90;3.20;;;12.50;99.90;;;;;;5034623;28;20048;-75
2022/11/04 01:30:00;;;;;;;8.80;3.20;;;12.50;99.90;;;;;;5034596;28;20479;-75
2022/11/04 01:32:27;;;;;;;6.93;3.58;;;12.40;99.90;;;;;;5045615;28;20071;-75
2022/11/04 01:34:52;;;;;;;9.55;4.18;;;12.40;99.90;;;;;;5034841;28;20063;-75
2022/11/04 01:37:18;;;;;;;7.30;4.28;;;12.30;99.90;;;;;;5036649;28;20057;-75
2022/11/04 01:39:43;;;;;;;6.88;4.18;;;12.30;99.90;;;;;;5040991;28;20582;-75
2022/11/04 01:42:12;;;;;;;9.13;5.55;;;12.30;99.90;;;;;;5032982;28;20029;-75
2022/11/04 01:44:41;;;;;;;7.70;4.30;;;12.30;99.90;;;;;;5051273;28;20469;-75
2022/11/04 01:47:29;;;;;;;7.00;4.82;;;12.30;99.90;;;;;;5036103;28;20025;-75
2022/11/04 01:50:12;;;;;;;10.10;5.35;;;12.30;99.90;;;;;;5044764;28;20390;-75
2022/11/04 01:52:53;;;;;;;10.00;5.47;;;12.30;99.90;;;;;;5038424;28;20063;-75
2022/11/04 01:55:26;;;;;;;10.93;6.00;;;12.30;99.90;;;;;;5050298;28;20037;-75
2022/11/04 01:57:56;;;;;;;13.85;7.45;;;12.30;99.90;;;;;;5032547;28;20091;-75
2022/11/04 02:00:22;;;;;;;19.15;8.30;;;12.30;99.90;;;;;;5041950;28;20032;-75
2022/11/04 02:03:00;;;;;;;9.98;6.15;;;12.20;99.90;;;;;;5031674;28;20033;-75
2022/11/04 02:05:28;;;;;;;9.80;5.78;;;12.30;99.90;;;;;;5035071;28;20494;-75
2022/11/04 02:07:56;;;;;;;13.02;6.97;;;12.30;99.90;;;;;;5040237;28;20108;-75
2022/11/04 02:10:26;;;;;;;14.23;7.53;;;12.30;99.90;;;;;;5035723;28;20030;-75
2022/11/04 02:12:53;;;;;;;13.13;7.68;;;12.20;99.90;;;;;;5029401;28;20057;-75
2022/11/04 02:15:39;;;;;;;20.15;9.88;;;12.20;99.90;;;;;;5039260;28;20399;-75
2022/11/04 02:18:43;;;;;;;16.50;10.10;;;12.20;99.90;;;;;;5037284;28;20707;-75
2022/11/04 02:21:12;;;;;;;17.02;9.70;;;12.20;99.90;;;;;;5007347;28;20072;-75
2022/11/04 02:23:37;;;;;;;14.75;9.35;;;12.20;99.90;;;;;;5037994;28;20466;-75
2022/11/04 02:26:21;;;;;;;16.83;9.00;;;12.20;99.90;;;;;;5031239;28;20040;-75
2022/11/04 02:28:50;;;;;;;12.47;8.10;;;12.10;99.90;;;;;;5031189;28;20075;-75
2022/11/04 02:31:21;;;;;;;11.68;6.38;;;12.20;99.90;;;;;;5040701;28;20267;-75
2022/11/04 02:33:59;;;;;;;9.20;5.90;;;12.20;99.90;;;;;;5038701;28;20428;-75
2022/11/04 02:36:43;;;;;;;10.70;6.25;;;12.30;99.90;;;;;;5041180;28;20094;-75
2022/11/04 02:39:20;;;;;;;9.53;5.60;;;12.20;99.90;;;;;;5040884;28;20029;-75
2022/11/04 02:41:56;;;;;;;11.07;5.85;;;12.30;99.90;;;;;;5048398;28;20267;-75
2022/11/04 02:44:36;;;;;;;9.93;5.47;;;12.30;99.90;;;;;;5037217;28;20021;-75
2022/11/04 02:47:08;;;;;;;8.35;5.18;;;12.30;99.90;;;;;;5030437;28;20037;-75
2022/11/04 02:49:51;;;;;;;9.93;5.80;;;12.30;99.90;;;;;;5044392;28;20025;-75
2022/11/04 02:52:28;;;;;;;10.68;6.03;;;12.30;99.90;;;;;;5034805;28;20491;-75
2022/11/04 02:55:05;;;;;;;10.20;6.07;;;12.30;99.90;;;;;;5031378;28;20025;-75
2022/11/04 02:57:36;;;;;;;11.43;7.38;;;12.30;99.90;;;;;;5034603;28;20545;-75
2022/11/04 03:00:12;;;;;;;11.70;7.63;;;12.20;99.90;;;;;;5035827;28;20060;-75
2022/11/04 03:02:45;;;;;;;13.02;8.57;;;12.20;99.90;;;;;;5036914;28;20060;-75
2022/11/04 03:05:21;;;;;;;15.55;8.27;;;12.20;99.90;;;;;;5039980;28;20430;-75
2022/11/04 03:07:49;;;;;;;13.88;8.60;;;12.20;99.90;;;;;;5042783;28;20104;-75
2022/11/04 03:10:27;;;;;;;14.90;9.20;;;12.10;99.90;;;;;;5032279;28;20025;-75
2022/11/04 03:13:07;;;;;;;15.50;8.88;;;12.20;99.90;;;;;;5040134;28;20068;-75
2022/11/04 03:15:36;;;;;;;17.58;9.60;;;12.10;99.90;;;;;;5036081;28;20053;-75
2022/11/04 03:18:02;;;;;;;17.55;9.10;;;12.10;99.90;;;;;;5041274;28;20095;-75
2022/11/04 03:20:30;;;;;;;14.60;8.63;;;12.10;99.90;;;;;;5032236;28;20430;-75
2022/11/04 03:22:59;;;;;;;11.38;6.93;;;12.00;99.90;;;;;;5033059;28;20028;-75
2022/11/04 03:25:38;;;;;;;13.40;7.57;;;12.00;99.90;;;;;;5028855;28;20067;-75
2022/11/04 03:28:25;;;;;;;11.55;7.10;;;12.00;99.90;;;;;;5039101;28;20515;-75
2022/11/04 03:30:56;;;;;;;10.68;5.43;;;12.00;99.90;;;;;;5040816;28;20023;-75
2022/11/04 03:33:38;;;;;;;7.82;5.93;;;11.90;99.90;;;;;;5040444;28;20025;-75
2022/11/04 03:36:06;;;;;;;8.43;4.72;;;12.00;99.90;;;;;;5031837;28;20111;-75
2022/11/04 03:38:32;;;;;;;9.43;4.90;;;12.00;99.90;;;;;;5030694;28;20040;-75
2022/11/04 03:41:00;;;;;;;8.18;4.00;;;12.00;99.90;;;;;;5042501;28;20029;-75
2022/11/04 03:43:27;;;;;;;8.77;4.68;;;12.00;99.90;;;;;;5037722;28;20033;-75
2022/11/04 03:45:54;;;;;;;7.78;4.43;;;11.80;99.90;;;;;;5028349;28;20494;-75
2022/11/04 03:48:20;;;;;;;8.07;4.78;;;11.90;99.90;;;;;;5030028;28;20048;-75
2022/11/04 03:50:47;;;;;;;7.20;4.38;;;11.80;99.90;;;;;;5031804;28;20646;-75
2022/11/04 03:53:17;;;;;;;7.90;4.28;;;11.80;99.90;;;;;;5035229;28;20087;-75
2022/11/04 03:55:50;;;;;;;5.88;3.53;;;11.70;99.90;;;;;;5043054;28;20487;-75
2022/11/04 03:58:48;;;;;;;5.10;2.90;;;11.70;99.90;;;;;;5037154;28;20030;-75
2022/11/04 04:01:33;;;;;;;4.88;2.63;;;11.60;99.90;;;;;;5036168;28;20545;-74
2022/11/04 04:04:11;;;;;;;4.20;2.33;;;11.70;99.90;;;;;;5033740;28;20471;-74
2022/11/04 04:06:38;;;;;;;4.35;1.77;;;11.80;99.90;;;;;;5036671;28;20037;-75
2022/11/04 04:09:23;;;;;;;3.45;2.20;;;11.80;99.90;;;;;;5047917;28;20049;-74
2022/11/04 04:12:23;;;;;;;4.80;2.13;;;11.90;99.90;;;;;;5027390;28;20037;-74
2022/11/04 04:14:53;;;;;;;4.85;2.33;;;11.90;99.90;;;;;;5023227;28;20116;-74
2022/11/04 04:17:57;;;;;;;3.75;2.28;;;11.70;99.90;;;;;;5027820;28;20388;-75
2022/11/04 04:20:26;;;;;;;5.30;2.28;;;11.70;99.90;;;;;;4974364;28;20132;-74
2022/11/04 04:23:02;;;;;;;4.43;2.22;;;11.70;99.90;;;;;;4968054;28;20114;-73
2022/11/04 04:28:16;;;;;;;4.28;2.15;;;11.70;99.90;;;;;;5031059;28;20094;-74
2022/11/04 04:30:42;;;;;;;4.10;2.20;;;11.80;99.90;;;;;;5031912;28;20620;-75
2022/11/04 04:33:13;;;;;;;4.43;2.10;;;11.80;99.90;;;;;;5030650;28;20036;-74
2022/11/04 04:35:43;;;;;;;5.80;2.10;;;11.80;99.90;;;;;;5031971;28;20091;-74
2022/11/04 04:47:18;;;;;;;4.78;1.70;;;11.70;99.90;;;;;;5029972;28;20129;-74
2022/11/04 04:49:56;;;;;;;4.65;1.77;;;11.70;99.90;;;;;;5034759;28;20458;-73
2022/11/04 04:52:24;;;;;;;3.33;1.40;;;11.60;99.90;;;;;;5042577;28;20602;-74
2022/11/04 04:54:50;;;;;;;3.80;1.77;;;11.60;99.90;;;;;;5033825;28;20091;-74
2022/11/04 04:57:16;;;;;;;5.25;2.13;;;11.60;99.90;;;;;;5039042;28;20025;-74
2022/11/04 04:59:41;;;;;;;2.13;0.85;;;11.60;99.90;;;;;;5026392;28;20045;-74
2022/11/04 05:02:07;;;;;;;2.42;1.17;;;11.70;99.90;;;;;;5021523;28;20026;-74
2022/11/04 05:04:33;;;;;;;3.63;1.75;;;11.60;99.90;;;;;;5020773;28;20022;-74
2022/11/04 05:06:58;;;;;;;2.50;1.50;;;11.60;99.90;;;;;;5024286;28;20395;-75
2022/11/04 05:09:24;;;;;;;4.05;1.27;;;11.70;99.90;;;;;;5023312;28;20621;-74
2022/11/04 05:11:50;;;;;;;2.78;1.10;;;11.70;99.90;;;;;;5028164;28;20029;-74
2022/11/04 05:14:15;;;;;;;2.67;1.40;;;11.70;99.90;;;;;;5021838;28;20113;-74
2022/11/04 05:16:41;;;;;;;2.50;1.00;;;11.70;99.90;;;;;;5022144;28;20123;-74
2022/11/04 05:19:07;;;;;;;2.92;1.10;;;11.70;99.90;;;;;;5027665;28;20030;-73
2022/11/04 05:21:33;;;;;;;3.03;1.23;;;11.60;99.90;;;;;;5025767;28;21144;-74
2022/11/04 05:23:58;;;;;;;1.75;0.98;;;11.60;99.90;;;;;;5027935;28;20044;-74
2022/11/04 05:26:24;;;;;;;2.92;1.25;;;11.60;99.90;;;;;;5028193;28;20545;-74
2022/11/04 05:28:50;;;;;;;2.33;1.10;;;11.60;99.90;;;;;;5024560;28;20079;-74
2022/11/04 05:31:16;;;;;;;1.95;1.02;;;11.60;99.90;;;;;;5029540;28;20149;-73
2022/11/04 05:33:41;;;;;;;2.40;1.08;;;11.50;99.90;;;;;;5024389;28;20029;-74
2022/11/04 05:36:12;;;;;;;1.95;0.93;;;11.60;99.90;;;;;;5034030;28;20406;-73
2022/11/04 05:38:39;;;;;;;2.50;1.20;;;11.60;99.90;;;;;;5039772;28;20359;-74
2022/11/04 05:41:06;;;;;;;4.03;1.15;;;11.60;99.90;;;;;;5025723;28;20268;-74
2022/11/04 05:43:33;;;;;;;2.03;0.82;;;11.60;99.90;;;;;;5025861;28;20029;-74
2022/11/04 05:45:59;;;;;;;1.83;1.10;;;11.60;99.90;;;;;;5026995;28;20364;-74
2022/11/04 05:48:25;;;;;;;3.05;1.00;;;11.50;99.90;;;;;;5023629;28;20569;-74
2022/11/04 05:50:51;;;;;;;2.47;1.25;;;11.50;99.90;;;;;;5024484;28;20025;-73
2022/11/04 05:53:16;;;;;;;2.40;0.88;;;11.40;99.90;;;;;;5025238;28;20096;-74
2022/11/04 05:55:43;;;;;;;2.40;0.82;;;11.40;99.90;;;;;;5032110;28;20040;-74
2022/11/04 05:58:09;;;;;;;1.27;0.70;;;11.50;99.90;;;;;;5034869;28;20098;-74
2022/11/04 06:00:35;;;;;;;3.28;0.80;;;11.50;99.90;;;;;;5027099;28;20045;-74
2022/11/04 06:03:00;;;;;;;2.47;0.80;;;11.40;99.90;;;;;;5029343;28;20060;-74
2022/11/04 06:05:27;;;;;;;1.85;0.77;;;11.50;99.90;;;;;;5029936;28;20043;-74
2022/11/04 06:07:53;;;;;;;3.47;0.85;;;11.50;99.90;;;;;;5032439;28;20039;-74
2022/11/04 06:10:19;;;;;;;1.85;0.73;;;11.40;99.90;;;;;;5029197;28;20031;-74
2022/11/04 06:12:44;;;;;;;2.03;0.98;;;11.40;99.90;;;;;;5026679;28;20383;-74
2022/11/04 06:15:10;;;;;;;1.55;0.93;;;11.40;99.90;;;;;;5031424;28;20033;-74
2022/11/04 06:17:36;;;;;;;1.45;0.70;;;11.40;99.90;;;;;;5030878;28;20033;-73
2022/11/04 06:20:03;;;;;;;2.30;0.80;;;11.40;99.90;;;;;;5026766;28;20064;-74
2022/11/04 06:22:29;;;;;;;0.80;0.40;;;11.40;99.90;;;;;;5024911;28;20074;-73
2022/11/04 06:24:55;;;;;;;2.72;0.82;;;11.30;99.90;;;;;;5027916;28;20030;-73
2022/11/04 06:27:21;;;;;;;2.63;0.73;;;11.30;99.90;;;;;;5028382;28;20040;-74
2022/11/04 06:29:46;;;;;;;1.27;0.50;;;11.30;99.90;;;;;;5035108;28;20844;-74
2022/11/04 06:32:16;;;;;;;4.03;0.70;;;11.30;99.90;;;;;;5042277;28;20032;-73
2022/11/04 06:34:41;;;;;;;1.65;0.52;;;11.30;99.90;;;;;;5031863;28;20039;-73
2022/11/04 06:37:08;;;;;;;1.33;0.55;;;11.40;99.90;;;;;;5037501;28;20386;-74
2022/11/04 06:39:34;;;;;;;3.65;0.55;;;11.40;99.90;;;;;;5026342;28;20037;-74
2022/11/04 06:42:00;;;;;;;1.33;0.70;;;11.50;99.90;;;;;;5030199;28;20200;-74
2022/11/04 06:44:25;;;;;;;1.63;0.77;;;11.50;99.90;;;;;;5031757;28;20033;-73
2022/11/04 06:46:51;;;;;;;1.30;0.57;;;11.40;99.90;;;;;;5027048;28;20040;-72
2022/11/04 06:49:20;;;;;;;2.03;0.80;;;11.60;99.90;;;;;;5029017;28;20030;-73
2022/11/04 06:51:48;;;;;;;2.10;0.95;;;11.60;99.90;;;;;;5029784;28;20418;-74
2022/11/04 06:54:15;;;;;;;1.45;0.68;;;11.40;99.90;;;;;;5027858;28;20037;-73
2022/11/04 06:56:41;;;;;;;5.03;1.60;;;11.40;99.90;;;;;;5035114;28;20029;-74
2022/11/04 06:59:07;;;;;;;2.55;1.40;;;11.30;99.90;;;;;;5032564;28;20108;-74
2022/11/04 07:01:35;;;;;;;3.10;1.70;;;11.40;99.90;;;;;;5028823;28;20036;-75
2022/11/04 07:04:03;;;;;;;4.05;2.08;;;11.30;99.90;;;;;;5028705;28;20086;-75
2022/11/04 07:06:29;;;;;;;3.00;1.70;;;11.30;99.90;;;;;;5027897;28;20025;-73
2022/11/04 07:08:57;;;;;;;4.30;1.90;;;11.50;99.90;;;;;;5030051;28;20436;-74
2022/11/04 07:11:25;;;;;;;4.35;2.33;;;11.50;99.90;;;;;;5023486;28;20017;-74
2022/11/04 07:13:51;;;;;;;4.72;1.90;;;11.30;99.90;;;;;;5032412;28;20085;-75
2022/11/04 07:16:17;;;;;;;4.22;1.92;;;11.30;99.90;;;;;;5035367;28;20058;-73
2022/11/04 07:18:44;;;;;;;5.60;2.08;;;11.30;99.90;;;;;;5026665;28;20503;-74
2022/11/04 07:21:11;;;;;;;5.45;2.17;;;11.30;99.90;;;;;;5021506;28;20038;-74
2022/11/04 07:23:36;;;;;;;4.55;1.83;;;11.40;99.90;;;;;;5027540;28;20060;-74
2022/11/04 07:26:05;;;;;;;3.65;1.60;;;11.20;99.90;;;;;;5025806;28;20064;-74
2022/11/04 07:28:31;;;;;;;2.78;1.38;;;11.20;99.90;;;;;;5025286;28;20029;-74
2022/11/04 07:30:58;;;;;;;3.97;1.48;;;11.20;99.90;;;;;;5025042;28;20030;-74
2022/11/04 07:33:25;;;;;;;4.13;1.60;;;11.20;99.90;;;;;;5041551;28;20036;-75
2022/11/04 07:35:52;;;;;;;33.25;17.42;;;11.10;99.90;;;;;;5027518;28;20080;-74
2022/11/04 07:38:18;;;;;;;14.43;6.43;;;11.10;99.90;;;;;;5023254;28;20029;-74
2022/11/04 07:40:44;;;;;;;11.18;2.80;;;11.00;99.90;;;;;;5035812;28;20108;-74
2022/11/04 07:43:09;;;;;;;6.50;3.08;;;11.00;99.90;;;;;;5023002;28;20152;-74
2022/11/04 07:45:35;;;;;;;27.25;24.83;;;10.90;99.90;;;;;;5032078;28;20413;-74
2022/11/04 07:48:01;;;;;;;2.50;1.13;;;10.60;99.90;;;;;;5023064;28;20512;-74
2022/11/04 07:50:26;;;;;;;3.00;1.10;;;10.50;99.90;;;;;;5022176;28;20046;-74
2022/11/04 07:52:52;;;;;;;18.63;11.25;;;10.50;99.90;;;;;;5026760;28;20056;-74
2022/11/04 07:55:18;;;;;;;35.63;24.50;;;10.40;99.90;;;;;;5028284;28;20044;-74
2022/11/04 07:57:45;;;;;;;22.40;13.68;;;10.50;99.90;;;;;;5029146;28;20148;-74
2022/11/04 08:00:13;;;;;;;12.02;6.18;;;10.40;99.90;;;;;;5027389;28;20037;-74
2022/11/04 08:02:39;;;;;;;0.98;0.38;;;10.30;99.90;;;;;;5026616;28;20025;-74
2022/11/04 08:05:05;;;;;;;0.73;0.30;;;10.10;99.90;;;;;;5033685;28;20658;-75
2022/11/04 08:07:31;;;;;;;2.55;1.10;;;10.10;99.90;;;;;;5031122;28;20029;-74
2022/11/04 08:09:57;;;;;;;3.83;1.40;;;10.10;99.90;;;;;;5034559;28;20063;-74
2022/11/04 08:12:23;;;;;;;2.13;0.95;;;10.00;99.90;;;;;;5035114;28;20525;-75
2022/11/04 08:14:49;;;;;;;4.53;1.98;;;10.00;99.90;;;;;;5031426;28;20025;-74
2022/11/04 08:17:15;;;;;;;4.78;2.25;;;9.90;99.90;;;;;;5026783;28;20057;-74
2022/11/04 08:19:41;;;;;;;2.05;0.98;;;9.80;99.90;;;;;;5028645;28;20091;-74
2022/11/04 08:22:07;;;;;;;2.05;0.95;;;9.80;99.90;;;;;;5027964;28;20033;-74
2022/11/04 08:24:34;;;;;;;4.43;2.75;;;10.00;99.90;;;;;;5032295;28;20028;-75
2022/11/04 08:27:00;;;;;;;4.38;1.52;;;9.90;99.90;;;;;;5035233;28;20083;-74
2022/11/04 08:29:25;;;;;;;1.73;0.68;;;9.90;99.90;;;;;;5033377;28;20395;-75
2022/11/04 08:31:51;;;;;;;3.17;0.50;;;9.80;99.90;;;;;;5026334;28;20025;-74
2022/11/04 08:34:17;;;;;;;8.82;5.93;;;9.90;99.90;;;;;;5024727;28;20482;-74
2022/11/04 08:36:44;;;;;;;4.00;2.08;;;9.90;99.90;;;;;;5026296;28;20506;-74
2022/11/04 08:39:11;;;;;;;2.53;0.50;;;10.00;99.90;;;;;;5023700;28;20057;-74
2022/11/04 08:41:39;;;;;;;0.52;0.28;;;10.00;99.90;;;;;;5020030;28;20091;-74
2022/11/04 08:44:06;;;;;;;0.50;0.20;;;9.70;99.90;;;;;;5027353;28;20034;-74
2022/11/04 08:46:37;;;;;;;1.83;0.30;;;9.80;99.90;;;;;;5026587;28;20033;-74
2022/11/04 08:49:03;;;;;;;1.35;0.20;;;9.90;99.90;;;;;;5035902;28;20033;-74
2022/11/04 08:51:31;;;;;;;0.50;0.22;;;9.70;99.90;;;;;;5035152;28;20029;-74
2022/11/04 08:53:57;;;;;;;1.55;0.70;;;9.70;99.90;;;;;;5040281;28;20040;-74
2022/11/04 08:56:26;;;;;;;1.13;0.80;;;9.70;99.90;;;;;;5031150;28;20025;-74
2022/11/04 08:58:52;;;;;;;0.40;0.15;;;9.60;99.90;;;;;;5039040;28;20025;-74
2022/11/04 09:01:20;;;;;;;1.45;0.13;;;9.60;99.90;;;;;;5035946;28;20071;-74
2022/11/04 09:03:46;;;;;;;0.40;0.25;;;9.50;99.90;;;;;;5032646;28;20021;-74
2022/11/04 09:06:18;;;;;;;1.63;0.38;;;9.60;99.90;;;;;;5034795;28;20491;-74
2022/11/04 09:08:45;;;;;;;1.48;0.70;;;9.60;99.90;;;;;;5034210;28;21004;-74
2022/11/04 09:11:13;;;;;;;1.95;0.90;;;9.70;99.90;;;;;;5029748;28;20028;-74
2022/11/04 09:13:39;;;;;;;0.77;0.22;;;9.80;99.90;;;;;;5034854;28;20021;-75
2022/11/04 09:16:06;;;;;;;2.92;0.88;;;9.70;99.90;;;;;;5027005;28;20085;-74
2022/11/04 09:18:32;;;;;;;1.42;0.57;;;9.70;99.90;;;;;;5028793;28;20061;-74
2022/11/04 09:21:05;;;;;;;3.13;0.52;;;9.80;99.90;;;;;;5033368;28;20076;-74
2022/11/04 09:23:31;;;;;;;1.27;0.50;;;9.60;99.90;;;;;;5032953;28;20193;-74
2022/11/04 09:26:02;;;;;;;1.10;0.35;;;9.50;99.90;;;;;;5028210;28;20029;-74
2022/11/04 09:28:28;;;;;;;0.80;0.30;;;9.70;99.90;;;;;;5033620;28;20529;-74
2022/11/04 09:30:53;;;;;;;1.48;0.50;;;9.60;99.90;;;;;;5027001;28;20057;-73
2022/11/04 09:33:19;;;;;;;0.93;0.30;;;9.40;99.90;;;;;;5034504;28;20029;-74
2022/11/04 09:35:54;;;;;;;0.57;0.22;;;9.40;99.90;;;;;;5026304;28;20120;-74
2022/11/04 09:38:20;;;;;;;2.78;0.50;;;9.60;99.90;;;;;;5026537;28;20040;-75
2022/11/04 09:40:47;;;;;;;3.20;0.85;;;9.50;99.90;;;;;;5030934;28;20041;-74
2022/11/04 09:43:50;;;;;;;0.45;0.20;;;9.70;99.90;;;;;;5038970;28;20537;-74
2022/11/04 09:46:16;;;;;;;2.08;0.40;;;9.50;99.90;;;;;;5041579;28;20052;-74
2022/11/04 09:48:49;;;;;;;1.10;0.30;;;9.70;99.90;;;;;;5034683;28;20033;-74
2022/11/04 09:51:21;;;;;;;0.60;0.30;;;9.80;99.90;;;;;;5036726;28;20557;-74
2022/11/04 09:53:55;;;;;;;0.35;0.20;;;9.90;99.90;;;;;;5035015;28;20088;-75
2022/11/04 09:56:26;;;;;;;1.85;0.40;;;9.90;99.90;;;;;;5037035;28;20056;-75
2022/11/04 09:58:52;;;;;;;0.93;0.43;;;10.20;99.90;;;;;;5030333;28;20094;-74
2022/11/04 10:01:18;;;;;;;1.73;0.28;;;10.40;99.90;;;;;;5026085;28;20037;-74
2022/11/04 10:03:58;;;;;;;1.75;0.52;;;10.60;99.90;;;;;;5029143;28;20040;-74
2022/11/04 10:06:44;;;;;;;0.82;0.13;;;10.60;99.90;;;;;;5031954;28;20036;-74
2022/11/04 10:09:16;;;;;;;1.38;0.30;;;10.40;99.90;;;;;;5037060;28;20102;-74
2022/11/04 10:12:01;;;;;;;1.95;0.55;;;10.40;99.90;;;;;;5030534;28;20717;-74
2022/11/04 10:14:32;;;;;;;1.08;0.32;;;10.40;99.90;;;;;;5031299;28;20075;-74
2022/11/04 10:17:04;;;;;;;0.17;0.03;;;10.40;99.90;;;;;;5031591;28;20049;-74
2022/11/04 10:20:02;;;;;;;2.88;1.00;;;10.40;99.90;;;;;;5032403;28;20455;-74
2022/11/04 10:22:35;;;;;;;9.50;3.72;;;10.50;99.90;;;;;;5019005;28;20034;-74
2022/11/04 10:25:14;;;;;;;19.60;7.82;;;10.40;99.90;;;;;;5036252;28;20033;-74
2022/11/04 10:27:43;;;;;;;34.97;15.85;;;10.70;99.90;;;;;;5031784;28;20028;-74
2022/11/04 10:30:14;;;;;;;1.85;1.02;;;10.50;99.90;;;;;;5029197;28;20029;-74
2022/11/04 10:33:08;;;;;;;12.52;3.15;;;10.40;99.90;;;;;;5026968;28;20080;-74
2022/11/04 10:35:48;;;;;;;6.25;3.67;;;10.40;99.90;;;;;;5030033;28;21351;-75
2022/11/04 10:38:37;;;;;;;3.92;2.40;;;10.50;99.90;;;;;;5022196;28;20033;-74
2022/11/04 10:41:31;;;;;;;1.33;0.77;;;10.50;99.90;;;;;;5041774;28;20052;-74
2022/11/04 10:44:03;;;;;;;2.63;0.60;;;10.70;99.90;;;;;;5026400;28;20128;-74
2022/11/04 10:46:39;;;;;;;0.57;0.32;;;10.60;99.90;;;;;;5031596;28;20475;-74
2022/11/04 10:49:41;;;;;;;0.57;0.45;;;10.60;99.90;;;;;;5031802;28;20027;-74
2022/11/04 10:52:07;;;;;;;0.28;0.20;;;10.80;99.90;;;;;;5033404;28;20495;-74
2022/11/04 10:54:45;;;;;;;0.65;0.20;;;10.70;99.90;;;;;;5027567;28;20430;-74
2022/11/04 10:57:19;;;;;;;0.10;0.10;;;10.70;99.90;;;;;;5032846;28;20032;-74
2022/11/04 11:00:30;;;;;;;1.65;0.30;;;10.60;99.90;;;;;;5026555;28;20029;-74
2022/11/04 11:02:56;;;;;;;0.73;0.20;;;10.50;99.90;;;;;;5029478;28;20064;-74
2022/11/04 11:05:23;;;;;;;0.70;0.30;;;10.50;99.90;;;;;;5031368;28;20142;-74
2022/11/04 11:07:56;;;;;;;0.30;0.10;;;10.70;99.90;;;;;;5040044;28;20104;-74
2022/11/04 11:10:33;;;;;;;1.08;0.20;;;10.60;99.90;;;;;;5035303;28;20037;-74
2022/11/04 11:13:05;;;;;;;0.57;0.32;;;10.40;99.90;;;;;;5043640;28;20029;-74
2022/11/04 11:15:33;;;;;;;0.73;0.17;;;10.40;99.90;;;;;;5034595;28;20048;-74
2022/11/04 11:18:02;;;;;;;0.70;0.20;;;10.20;99.90;;;;;;5033577;28;20475;-74
2022/11/04 11:20:30;;;;;;;0.82;0.25;;;10.30;99.90;;;;;;5033014;28;20037;-74
2022/11/04 11:22:56;;;;;;;0.05;0.00;;;10.20;99.90;;;;;;5030569;28;20520;-74
2022/11/04 11:25:32;;;;;;;0.30;0.10;;;10.40;99.90;;;;;;5028700;28;20033;-75
2022/11/04 11:27:58;;;;;;;0.50;0.25;;;10.40;99.90;;;;;;5030426;28;20711;-75
2022/11/04 11:30:31;;;;;;;1.15;0.60;;;10.40;99.90;;;;;;5021884;28;20060;-74
2022/11/04 11:33:03;;;;;;;0.30;0.10;;;10.60;99.90;;;;;;5029820;28;20124;-74
2022/11/04 11:35:40;;;;;;;0.43;0.20;;;10.70;99.90;;;;;;5032545;28;20542;-74
2022/11/04 11:38:21;;;;;;;0.47;0.20;;;10.80;99.90;;;;;;5021113;28;20113;-74
2022/11/04 11:40:51;;;;;;;0.10;0.00;;;11.00;99.90;;;;;;5032774;28;20580;-74
2022/11/04 11:43:27;;;;;;;0.25;0.10;;;10.90;99.90;;;;;;5030115;28;20498;-75
2022/11/04 11:45:56;;;;;;;0.32;0.10;;;10.80;99.90;;;;;;5030129;28;20032;-74
2022/11/04 11:48:30;;;;;;;0.13;0.08;;;10.80;99.90;;;;;;5033292;28;20166;-74
2022/11/04 11:50:59;;;;;;;1.00;0.25;;;10.90;99.90;;;;;;5031101;28;20040;-74
2022/11/04 11:53:29;;;;;;;0.30;0.13;;;10.80;99.90;;;;;;5022620;28;20657;-74
2022/11/04 11:56:01;;;;;;;0.73;0.50;;;10.80;99.90;;;;;;5023950;28;20025;-74
2022/11/04 11:58:58;;;;;;;1.35;0.20;;;11.00;99.90;;;;;;5033100;28;20037;-74
2022/11/04 12:01:37;;;;;;;0.25;0.10;;;11.10;99.90;;;;;;4996255;28;20125;-74
2022/11/04 12:04:03;;;;;;;0.00;0.00;;;11.30;99.90;;;;;;5027849;28;20026;-74
2022/11/04 12:06:59;;;;;;;0.50;0.20;;;11.40;99.90;;;;;;5021215;28;20091;-74
2022/11/04 12:09:35;;;;;;;1.05;0.22;;;11.60;99.90;;;;;;5035735;28;20029;-75
2022/11/04 12:12:19;;;;;;;0.60;0.20;;;11.80;99.90;;;;;;5025824;28;20053;-73
2022/11/04 12:15:07;;;;;;;8.50;4.55;;;11.90;99.90;;;;;;5026778;28;20049;-74
2022/11/04 12:17:45;;;;;;;0.20;0.20;;;11.80;99.90;;;;;;5017711;28;20057;-74
2022/11/04 12:20:19;;;;;;;0.60;0.17;;;11.80;99.90;;;;;;5028339;28;20056;-74
2022/11/04 12:23:06;;;;;;;0.70;0.13;;;11.80;99.90;;;;;;5023446;28;20025;-74
2022/11/04 12:25:59;;;;;;;0.70;0.10;;;11.90;99.90;;;;;;5025431;28;20035;-74
2022/11/04 12:28:49;;;;;;;1.17;0.52;;;12.00;99.90;;;;;;5030912;28;20045;-74
2022/11/04 12:31:14;;;;;;;0.70;0.10;;;11.90;99.90;;;;;;5025341;28;20116;-73
2022/11/04 12:33:45;;;;;;;0.77;0.30;;;11.90;99.90;;;;;;5025860;28;20104;-73
2022/11/04 12:36:21;;;;;;;0.45;0.13;;;11.90;99.90;;;;;;5025978;28;20550;-74
2022/11/04 12:39:10;;;;;;;1.45;0.20;;;12.10;99.90;;;;;;5037430;28;20033;-74
2022/11/04 12:41:43;;;;;;;0.10;0.08;;;12.20;99.90;;;;;;5028420;28;20479;-74
2022/11/04 12:44:33;;;;;;;1.65;0.15;;;12.00;99.90;;;;;;5027551;28;20143;-73
2022/11/04 12:47:21;;;;;;;0.20;0.10;;;12.00;99.90;;;;;;5035297;28;20029;-73
2022/11/04 12:50:24;;;;;;;0.90;0.20;;;11.90;99.90;;;;;;5031874;28;20036;-73
2022/11/04 12:52:58;;;;;;;0.00;0.00;;;11.90;99.90;;;;;;5031480;28;20065;-73
2022/11/04 12:55:48;;;;;;;0.00;0.00;;;11.90;99.90;;;;;;5024182;28;20021;-74
2022/11/04 12:58:20;;;;;;;0.77;0.22;;;11.90;99.90;;;;;;5028026;28;20117;-73
2022/11/04 13:00:51;;;;;;;0.15;0.15;;;12.00;99.90;;;;;;5036625;28;20029;-73
2022/11/04 13:03:45;;;;;;;1.70;0.40;;;12.00;99.90;;;;;;5030203;28;20033;-73
2022/11/04 13:06:46;;;;;;;0.00;0.00;;;12.00;99.90;;;;;;5025395;28;21109;-73
2022/11/04 13:09:30;;;;;;;1.08;0.32;;;12.00;99.90;;;;;;5021503;28;20635;-73
2022/11/04 13:12:16;;;;;;;0.38;0.20;;;12.00;99.90;;;;;;5036557;28;20037;-73
2022/11/04 13:14:46;;;;;;;0.90;0.38;;;12.00;99.90;;;;;;5025335;28;20036;-73
2022/11/04 13:17:17;;;;;;;0.10;0.10;;;11.90;99.90;;;;;;5036761;28;20183;-73
2022/11/04 13:19:47;;;;;;;0.70;0.30;;;12.10;99.90;;;;;;5028033;28;20033;-73
2022/11/04 13:22:18;;;;;;;1.48;0.13;;;12.20;99.90;;;;;;5042547;28;20118;-73
2022/11/04 13:24:51;;;;;;;0.10;0.00;;;12.10;99.90;;;;;;5027947;28;20049;-73
2022/11/04 13:27:35;;;;;;;1.30;0.20;;;12.20;99.90;;;;;;5025349;28;20052;-73
2022/11/04 13:30:31;;;;;;;0.45;0.20;;;12.10;99.90;;;;;;5025208;28;20479;-73
2022/11/04 13:33:10;;;;;;;0.82;0.20;;;12.20;99.90;;;;;;5030594;28;20459;-73
2022/11/04 13:35:48;;;;;;;4.88;0.30;;;12.30;99.90;;;;;;5032221;28;20062;-73
2022/11/04 13:38:18;;;;;;;0.35;0.15;;;12.30;99.90;;;;;;5031309;28;20613;-73